Bruce, Wisconsin
Current Conditions -  °F | °C
As of 4:35 PM on Sunday 23 Nov 2014 (Local Time) from KRCX Reporting Station
Moderate Fog Moderate Fog  
Wind Chill: 43°   Ceiling: 200
Heat Index: 43°   Visibility: 0.25mi
Dew Point: 42°   Wind: 3mph
Humidity: 97%   Direction: 120°ESE
Pressure: 29.37"   Gusts: NA
Location:  45.46°N, 91.27°W
Report Text: KRCX 232235Z AUTO 12003KT 1/4SM FG OVC002 06/06 A2937 RMK AO2 T00600056
Loading
Personal Weather Stations






























Interactive Weather Map New forecast layout! Learn more

10-Day Weather Forecast

Advertisements
Track Severe Weather on mobile